createdAt,value
2023-05-15T00:04:37.508Z,22.75
2023-05-15T00:09:39.129Z,19.10
2023-05-15T00:14:40.644Z,22.20
2023-05-15T00:19:42.182Z,20.55
2023-05-15T00:24:44.498Z,22.90
2023-05-15T00:29:46.098Z,23.45
2023-05-15T00:34:47.509Z,21.90
2023-05-15T00:39:49.053Z,23.67
2023-05-15T00:44:52.040Z,20.63
2023-05-15T00:49:53.611Z,23.55
2023-05-15T00:54:55.246Z,19.77
2023-05-15T00:59:57.427Z,19.83
2023-05-15T01:04:58.827Z,16.45
2023-05-15T01:10:01.863Z,17.73
2023-05-15T01:15:03.390Z,18.02
2023-05-15T01:20:06.696Z,18.08
2023-05-15T01:25:17.498Z,20.27
2023-05-15T01:30:22.275Z,21.48
2023-05-15T01:35:41.346Z,21.08
2023-05-15T01:40:44.915Z,19.55
2023-05-15T01:45:46.357Z,19.55
2023-05-15T01:50:49.298Z,19.60
2023-05-15T01:55:51.888Z,19.33
2023-05-15T02:00:53.421Z,23.25
2023-05-15T02:05:56.653Z,17.70
2023-05-15T02:10:58.533Z,21.13
2023-05-15T02:16:00.232Z,19.20
2023-05-15T02:21:03.456Z,21.65
2023-05-15T02:26:21.546Z,19.23
2023-05-15T02:31:31.700Z,22.35
2023-05-15T02:36:37.028Z,19.58
2023-05-15T02:41:39.127Z,19.90
2023-05-15T02:46:41.416Z,20.77
2023-05-15T02:51:42.930Z,25.35
2023-05-15T02:56:44.346Z,22.48
2023-05-15T03:01:46.992Z,23.65
2023-05-15T03:06:48.406Z,23.63
2023-05-15T03:11:49.890Z,22.92
2023-05-15T03:16:51.514Z,23.88
2023-05-15T03:21:53.082Z,18.85
2023-05-15T03:26:54.462Z,21.23
2023-05-15T03:31:56.021Z,18.90
2023-05-15T03:36:57.568Z,22.65
2023-05-15T03:42:00.160Z,23.77
2023-05-15T03:47:01.810Z,22.05
2023-05-15T03:52:03.325Z,26.33
2023-05-15T03:57:05.078Z,24.02
2023-05-15T04:02:06.609Z,25.60
2023-05-15T04:07:08.097Z,25.77
2023-05-15T04:12:09.526Z,28.90
2023-05-15T04:17:10.937Z,26.67
2023-05-15T04:22:12.288Z,25.25
2023-05-15T04:27:13.709Z,25.65
2023-05-15T04:32:15.489Z,26.50
2023-05-15T04:37:16.958Z,27.65
2023-05-15T04:42:18.363Z,24.55
2023-05-15T04:47:19.826Z,28.15
2023-05-15T04:52:21.360Z,29.13
2023-05-15T04:57:23.124Z,29.05
2023-05-15T05:02:24.580Z,31.83
2023-05-15T05:07:26.034Z,30.80
2023-05-15T05:12:28.114Z,33.03
2023-05-15T05:17:29.792Z,28.98
2023-05-15T05:22:31.228Z,30.60
2023-05-15T05:27:32.650Z,25.35
2023-05-15T05:32:34.150Z,25.60
2023-05-15T05:37:36.645Z,24.55
2023-05-15T05:42:39.298Z,22.67
2023-05-15T05:47:40.735Z,20.75
2023-05-15T05:52:42.139Z,21.40
2023-05-15T05:57:44.051Z,24.63
2023-05-15T06:02:46.319Z,23.75
2023-05-15T06:07:48.186Z,26.70
2023-05-15T06:12:49.554Z,25.30
2023-05-15T06:17:51.083Z,22.27
2023-05-15T06:22:52.569Z,22.15
2023-05-15T06:27:53.939Z,20.13
2023-05-15T06:32:55.784Z,20.48
2023-05-15T06:37:58.547Z,18.02
2023-05-15T06:43:00.201Z,17.85
2023-05-15T06:48:02.081Z,19.52
2023-05-15T06:53:03.737Z,17.92
2023-05-15T06:58:05.645Z,18.48
2023-05-15T07:03:07.077Z,18.40
2023-05-15T07:08:08.544Z,15.93
2023-05-15T07:13:10.081Z,17.70
2023-05-15T07:18:11.715Z,17.80
2023-05-15T07:23:13.230Z,16.23
2023-05-15T07:28:14.622Z,18.15
2023-05-15T07:33:16.245Z,16.33
2023-05-15T07:38:18.450Z,18.52
2023-05-15T07:43:19.994Z,18.23
2023-05-15T07:48:21.609Z,20.85
2023-05-15T07:53:23.029Z,21.73
2023-05-15T07:58:24.724Z,19.73
2023-05-15T08:03:26.456Z,19.20
2023-05-15T08:08:27.967Z,24.98
2023-05-15T08:13:29.381Z,21.20
2023-05-15T08:18:30.879Z,21.67
2023-05-15T08:23:32.311Z,21.58
2023-05-15T08:28:33.770Z,19.70
2023-05-15T08:33:35.205Z,20.83
2023-05-15T08:38:36.725Z,22.13
2023-05-15T08:43:39.297Z,21.50
2023-05-15T08:48:41.723Z,22.88
2023-05-15T08:53:43.326Z,22.80
2023-05-15T08:58:45.010Z,21.55
2023-05-15T09:03:46.562Z,22.92
2023-05-15T09:08:48.833Z,26.05
2023-05-15T09:13:50.745Z,20.80
2023-05-15T09:18:52.880Z,26.35
2023-05-15T09:24:13.810Z,25.15
2023-05-15T09:29:18.346Z,26.40
2023-05-15T09:34:28.724Z,26.98
2023-05-15T09:39:30.599Z,26.85
2023-05-15T09:44:32.764Z,26.70
2023-05-15T09:49:34.294Z,27.55
2023-05-15T09:54:36.769Z,30.40
2023-05-15T09:59:45.477Z,29.52
2023-05-15T10:04:53.401Z,31.03
2023-05-15T10:09:55.113Z,34.00
2023-05-15T10:14:57.275Z,33.35
2023-05-15T10:19:59.554Z,31.80
2023-05-15T10:25:08.936Z,35.30
2023-05-15T10:30:12.103Z,38.70
2023-05-15T10:35:13.652Z,33.97
2023-05-15T10:40:16.202Z,32.25
2023-05-15T10:45:17.702Z,28.88
2023-05-15T10:50:20.158Z,30.95
2023-05-15T10:55:22.452Z,30.23
2023-05-15T11:00:24.295Z,28.10
2023-05-15T11:05:26.469Z,30.75
2023-05-15T11:10:27.999Z,32.15
2023-05-15T11:15:41.660Z,26.90
2023-05-15T11:20:43.173Z,27.98
2023-05-15T11:25:52.684Z,25.48
2023-05-15T11:35:59.851Z,24.70
2023-05-15T11:41:03.858Z,27.58
2023-05-15T11:46:13.832Z,27.88
2023-05-15T11:51:16.379Z,25.65
2023-05-15T11:56:19.409Z,26.63
2023-05-15T12:01:20.974Z,24.80
2023-05-15T12:06:22.847Z,23.83
2023-05-15T12:11:24.693Z,26.00
2023-05-15T12:16:27.395Z,24.50
2023-05-15T12:21:28.969Z,24.15
2023-05-15T12:26:30.477Z,25.95
2023-05-15T12:31:33.564Z,24.10
2023-05-15T12:36:35.010Z,27.00
2023-05-15T12:41:37.480Z,23.50
2023-05-15T12:46:39.984Z,19.83
2023-05-15T12:51:44.921Z,19.30
2023-05-15T12:56:49.822Z,20.60
2023-05-15T13:01:51.373Z,17.50
2023-05-15T13:06:53.170Z,18.92
2023-05-15T13:11:55.322Z,19.45
2023-05-15T13:16:59.313Z,17.17
2023-05-15T13:22:00.689Z,19.38
2023-05-15T13:27:02.060Z,20.00
2023-05-15T13:32:03.579Z,22.40
2023-05-15T13:37:04.996Z,21.98
2023-05-15T13:42:06.523Z,20.27
2023-05-15T13:47:08.114Z,23.35
2023-05-15T13:52:09.713Z,21.45
2023-05-15T13:57:11.144Z,22.15
2023-05-15T14:02:14.659Z,22.00
2023-05-15T14:07:16.066Z,25.00
2023-05-15T14:12:17.536Z,18.23
2023-05-15T14:17:18.963Z,17.42
2023-05-15T14:22:24.747Z,15.38
2023-05-15T14:27:26.415Z,16.45
2023-05-15T14:32:27.840Z,13.13
2023-05-15T14:37:29.291Z,13.10
2023-05-15T14:42:31.216Z,13.38
2023-05-15T14:47:33.767Z,13.70
2023-05-15T14:52:35.240Z,13.02
2023-05-15T14:57:37.025Z,11.90
2023-05-15T15:02:38.989Z,12.60
2023-05-15T15:07:59.292Z,12.65
2023-05-15T15:13:01.016Z,11.02
2023-05-15T15:18:02.553Z,11.75
2023-05-15T15:23:05.059Z,14.25
2023-05-15T15:28:06.565Z,11.20
2023-05-15T15:33:07.993Z,10.82
2023-05-15T15:38:11.656Z,12.25
2023-05-15T15:43:13.077Z,12.90
2023-05-15T15:48:14.589Z,12.02
2023-05-15T15:53:17.182Z,16.00
2023-05-15T15:58:19.781Z,16.75
2023-05-15T16:03:21.313Z,20.63
2023-05-15T16:08:22.911Z,18.17
2023-05-15T16:13:24.365Z,13.50
2023-05-15T16:18:25.859Z,12.98
2023-05-15T16:23:27.434Z,13.10
2023-05-15T16:28:28.972Z,14.57
2023-05-15T16:33:31.055Z,9.40
2023-05-15T16:38:32.512Z,16.33
2023-05-15T16:43:34.178Z,13.30
2023-05-15T16:48:35.715Z,18.10
2023-05-15T16:53:37.668Z,13.43
2023-05-15T16:58:41.216Z,11.07
2023-05-15T17:03:43.748Z,12.05
2023-05-15T17:08:46.350Z,11.05
2023-05-15T17:13:47.859Z,13.65
2023-05-15T17:18:49.367Z,13.57
2023-05-15T17:23:51.948Z,11.20
2023-05-15T17:28:55.219Z,13.43
2023-05-15T17:33:56.630Z,9.77
2023-05-15T17:38:58.042Z,11.35
2023-05-15T17:43:59.547Z,8.23
2023-05-15T17:49:01.178Z,8.10
2023-05-15T17:54:02.632Z,4.47
2023-05-15T17:59:04.108Z,4.45
2023-05-15T18:04:05.795Z,3.33
2023-05-15T18:09:07.820Z,2.15
2023-05-15T18:14:09.231Z,4.75
2023-05-15T18:19:11.030Z,2.20
2023-05-15T18:24:12.554Z,4.90
2023-05-15T18:29:14.098Z,10.25
2023-05-15T18:34:15.523Z,10.80
2023-05-15T18:39:16.994Z,6.68
2023-05-15T18:44:18.465Z,8.27
2023-05-15T18:49:19.990Z,9.60
2023-05-15T18:54:21.407Z,9.90
2023-05-15T18:59:23.462Z,9.80
2023-05-15T19:04:25.426Z,14.25
2023-05-15T19:09:27.117Z,10.27
2023-05-15T19:14:28.640Z,10.15
2023-05-15T19:19:30.477Z,12.27
2023-05-15T19:24:33.500Z,9.35
2023-05-15T19:29:35.318Z,14.00
2023-05-15T19:34:36.788Z,12.40
2023-05-15T19:39:38.227Z,14.50
2023-05-15T19:44:39.602Z,12.05
2023-05-15T19:49:41.073Z,19.48
2023-05-15T19:54:42.531Z,11.93
2023-05-15T19:59:43.914Z,16.30
2023-05-15T20:04:45.593Z,13.98
2023-05-15T20:09:47.271Z,13.80
2023-05-15T20:14:49.600Z,13.60
2023-05-15T20:19:53.067Z,13.30
2023-05-15T20:24:54.479Z,14.82
2023-05-15T20:29:55.934Z,14.68
2023-05-15T20:34:57.890Z,13.90
2023-05-15T20:40:00.009Z,13.00
2023-05-15T20:45:01.479Z,10.75
2023-05-15T20:50:02.939Z,18.52
2023-05-15T20:55:05.645Z,17.75
2023-05-15T21:00:07.464Z,19.23
2023-05-15T21:05:09.192Z,15.35
2023-05-15T21:10:10.818Z,14.13
2023-05-15T21:15:12.318Z,13.07
2023-05-15T21:20:13.732Z,16.15
2023-05-15T21:25:16.052Z,17.38
2023-05-15T21:30:17.548Z,14.00
2023-05-15T21:35:18.954Z,12.35
2023-05-15T21:40:20.362Z,15.38
2023-05-15T21:45:22.022Z,10.57
2023-05-15T21:50:23.686Z,11.95
2023-05-15T21:55:25.228Z,14.30
2023-05-15T22:00:27.043Z,10.25
2023-05-15T22:05:28.810Z,14.60
2023-05-15T22:10:30.590Z,12.60
2023-05-15T22:15:31.949Z,14.75
2023-05-15T22:20:33.819Z,14.15
2023-05-15T22:25:35.508Z,12.02
2023-05-15T22:30:36.988Z,9.57
2023-05-15T22:35:38.383Z,10.95
2023-05-15T22:40:39.814Z,9.45
2023-05-15T22:45:41.794Z,10.35
2023-05-15T22:50:43.961Z,12.15
2023-05-15T22:55:45.521Z,11.90
2023-05-15T23:00:47.251Z,15.18
2023-05-15T23:05:50.161Z,13.90
2023-05-15T23:10:53.954Z,13.48
2023-05-15T23:15:55.555Z,14.48
2023-05-15T23:20:57.268Z,11.45
2023-05-15T23:25:58.730Z,14.00
2023-05-15T23:31:00.186Z,19.70
2023-05-15T23:36:02.147Z,11.38
2023-05-15T23:41:03.752Z,16.52
2023-05-15T23:46:05.680Z,11.40
2023-05-15T23:51:07.104Z,13.98
2023-05-15T23:56:08.548Z,11.35
